Castle Valley, Utah
Current Conditions -  °F | °C
As of 7:53 PM on Friday 19 Dec 2014 (Local Time) from KCNY Reporting Station
Clear Clear  
Wind Chill: 32°   Ceiling: Unl
Heat Index: 32°   Visibility: 8mi
Dew Point: 29°   Wind: 0mph
Humidity: 88%   Direction: NA
Pressure: 30.2"   Gusts: NA
Location:  38.6903°N, 109.256°W
Report Text: KCNY 200253Z AUTO 00000KT 8SM CLR 00/M02 A3020 RMK AO2 SLP248 T00001017 50000
Loading
Personal Weather Stations






























Interactive Weather Map New forecast layout! Learn more

10-Day Weather Forecast

Advertisements
Track Severe Weather on mobile